sensor_id;sensor_type;location;lat;lon;timestamp;pressure;altitude;pressure_sealevel;temperature;humidity
21742;BME280;11033;47.490;11.116;2022-09-09T00:04:28;93063.84;;;16.46;79.93
21742;BME280;11033;47.490;11.116;2022-09-09T00:12:25;93070.81;;;16.59;78.48
21742;BME280;11033;47.490;11.116;2022-09-09T00:15:03;93069.31;;;16.63;76.50
21742;BME280;11033;47.490;11.116;2022-09-09T00:17:49;93065.34;;;16.42;83.07
21742;BME280;11033;47.490;11.116;2022-09-09T00:20:29;93061.78;;;16.60;78.19
21742;BME280;11033;47.490;11.116;2022-09-09T00:25:34;93056.47;;;16.60;78.33
21742;BME280;11033;47.490;11.116;2022-09-09T00:28:02;93062.22;;;16.45;80.95
21742;BME280;11033;47.490;11.116;2022-09-09T00:30:34;93054.84;;;16.59;77.58
21742;BME280;11033;47.490;11.116;2022-09-09T00:33:02;93044.88;;;16.55;79.81
21742;BME280;11033;47.490;11.116;2022-09-09T00:35:45;93048.69;;;16.47;80.81
21742;BME280;11033;47.490;11.116;2022-09-09T00:38:19;93052.63;;;16.56;79.93
21742;BME280;11033;47.490;11.116;2022-09-09T00:40:52;93060.41;;;16.58;78.89
21742;BME280;11033;47.490;11.116;2022-09-09T00:43:30;93047.78;;;16.53;78.65
21742;BME280;11033;47.490;11.116;2022-09-09T00:51:59;93034.59;;;16.46;78.94
21742;BME280;11033;47.490;11.116;2022-09-09T00:54:35;93040.41;;;16.25;82.75
21742;BME280;11033;47.490;11.116;2022-09-09T00:57:33;93039.53;;;16.31;82.38
21742;BME280;11033;47.490;11.116;2022-09-09T01:08:59;93029.97;;;16.12;82.22
21742;BME280;11033;47.490;11.116;2022-09-09T01:11:43;93033.91;;;16.21;80.46
21742;BME280;11033;47.490;11.116;2022-09-09T01:17:11;93033.66;;;16.11;83.63
21742;BME280;11033;47.490;11.116;2022-09-09T01:25:09;93042.41;;;16.00;84.15
21742;BME280;11033;47.490;11.116;2022-09-09T01:27:37;93046.00;;;16.05;83.27
21742;BME280;11033;47.490;11.116;2022-09-09T01:30:10;93033.13;;;15.91;85.18
21742;BME280;11033;47.490;11.116;2022-09-09T01:32:38;93033.84;;;15.98;82.24
21742;BME280;11033;47.490;11.116;2022-09-09T01:35:26;93041.59;;;15.99;82.38
21742;BME280;11033;47.490;11.116;2022-09-09T01:37:55;93038.03;;;16.05;80.72
21742;BME280;11033;47.490;11.116;2022-09-09T01:40:20;93033.84;;;15.98;83.06
21742;BME280;11033;47.490;11.116;2022-09-09T01:42:46;93038.00;;;15.94;85.05
21742;BME280;11033;47.490;11.116;2022-09-09T01:45:11;93052.31;;;15.93;84.00
21742;BME280;11033;47.490;11.116;2022-09-09T01:47:37;93039.94;;;15.87;84.38
21742;BME280;11033;47.490;11.116;2022-09-09T01:50:03;93035.47;;;15.99;82.33
21742;BME280;11033;47.490;11.116;2022-09-09T01:52:29;93038.31;;;15.85;82.83
21742;BME280;11033;47.490;11.116;2022-09-09T01:54:55;93028.25;;;15.88;83.67
21742;BME280;11033;47.490;11.116;2022-09-09T01:58:01;93026.00;;;16.03;80.84
21742;BME280;11033;47.490;11.116;2022-09-09T02:00:23;93028.72;;;15.84;83.01
21742;BME280;11033;47.490;11.116;2022-09-09T02:03:06;93020.88;;;15.90;82.46
21742;BME280;11033;47.490;11.116;2022-09-09T02:05:44;93020.44;;;15.93;82.54
21742;BME280;11033;47.490;11.116;2022-09-09T02:08:20;93012.59;;;15.98;80.83
21742;BME280;11033;47.490;11.116;2022-09-09T02:13:17;93001.22;;;15.79;85.18
21742;BME280;11033;47.490;11.116;2022-09-09T02:15:52;92987.69;;;15.80;85.48
21742;BME280;11033;47.490;11.116;2022-09-09T02:18:26;92989.09;;;15.83;82.29
21742;BME280;11033;47.490;11.116;2022-09-09T02:20:53;93004.66;;;15.79;81.71
21742;BME280;11033;47.490;11.116;2022-09-09T02:23:19;93006.47;;;15.67;84.08
21742;BME280;11033;47.490;11.116;2022-09-09T02:25:46;93005.81;;;14.92;89.39
21742;BME280;11033;47.490;11.116;2022-09-09T02:28:13;93004.84;;;15.30;87.26
21742;BME280;11033;47.490;11.116;2022-09-09T02:30:41;92998.63;;;15.36;87.18
21742;BME280;11033;47.490;11.116;2022-09-09T02:33:08;93001.44;;;15.41;87.32
21742;BME280;11033;47.490;11.116;2022-09-09T02:35:37;92990.19;;;15.57;84.33
21742;BME280;11033;47.490;11.116;2022-09-09T02:38:08;92996.34;;;15.58;85.20
21742;BME280;11033;47.490;11.116;2022-09-09T02:40:35;92997.88;;;15.47;86.34
21742;BME280;11033;47.490;11.116;2022-09-09T02:43:00;93000.97;;;15.44;85.07
21742;BME280;11033;47.490;11.116;2022-09-09T02:45:34;92997.56;;;15.55;85.03
21742;BME280;11033;47.490;11.116;2022-09-09T02:51:08;92995.50;;;15.57;84.48
21742;BME280;11033;47.490;11.116;2022-09-09T02:56:18;92996.41;;;15.51;85.55
21742;BME280;11033;47.490;11.116;2022-09-09T02:58:45;92999.06;;;15.51;84.10
21742;BME280;11033;47.490;11.116;2022-09-09T03:01:11;92994.50;;;15.58;82.88
21742;BME280;11033;47.490;11.116;2022-09-09T03:03:37;92988.31;;;15.46;84.39
21742;BME280;11033;47.490;11.116;2022-09-09T03:06:03;92988.88;;;15.48;83.96
21742;BME280;11033;47.490;11.116;2022-09-09T03:08:28;92993.47;;;15.41;86.63
21742;BME280;11033;47.490;11.116;2022-09-09T03:10:54;92988.75;;;15.43;85.66
21742;BME280;11033;47.490;11.116;2022-09-09T03:13:20;93000.09;;;15.50;84.10
21742;BME280;11033;47.490;11.116;2022-09-09T03:15:45;93007.25;;;15.49;82.84
21742;BME280;11033;47.490;11.116;2022-09-09T03:18:11;93016.59;;;15.52;82.58
21742;BME280;11033;47.490;11.116;2022-09-09T03:20:36;93013.09;;;15.21;86.86
21742;BME280;11033;47.490;11.116;2022-09-09T03:23:01;93028.88;;;15.35;84.64
21742;BME280;11033;47.490;11.116;2022-09-09T03:25:27;93025.09;;;15.42;85.15
21742;BME280;11033;47.490;11.116;2022-09-09T03:27:54;93014.41;;;15.31;85.89
21742;BME280;11033;47.490;11.116;2022-09-09T03:30:24;93017.06;;;15.31;88.09
21742;BME280;11033;47.490;11.116;2022-09-09T03:32:49;93026.94;;;15.42;84.38
21742;BME280;11033;47.490;11.116;2022-09-09T03:35:15;93019.34;;;15.45;84.67
21742;BME280;11033;47.490;11.116;2022-09-09T03:37:41;93014.63;;;15.47;83.74
21742;BME280;11033;47.490;11.116;2022-09-09T03:40:07;93017.28;;;15.47;84.54
21742;BME280;11033;47.490;11.116;2022-09-09T03:42:35;93016.34;;;15.23;87.68
21742;BME280;11033;47.490;11.116;2022-09-09T03:45:05;93028.41;;;15.38;85.21
21742;BME280;11033;47.490;11.116;2022-09-09T03:47:31;93030.41;;;15.42;86.21
21742;BME280;11033;47.490;11.116;2022-09-09T03:49:56;93022.38;;;15.49;85.13
21742;BME280;11033;47.490;11.116;2022-09-09T03:52:22;93024.00;;;15.32;87.53
21742;BME280;11033;47.490;11.116;2022-09-09T03:54:50;93020.75;;;15.48;83.79
21742;BME280;11033;47.490;11.116;2022-09-09T03:57:16;93020.16;;;15.46;85.71
21742;BME280;11033;47.490;11.116;2022-09-09T03:59:42;93021.50;;;15.37;87.19
21742;BME280;11033;47.490;11.116;2022-09-09T04:02:08;93018.97;;;15.42;84.46
21742;BME280;11033;47.490;11.116;2022-09-09T04:04:34;93013.97;;;15.52;83.41
21742;BME280;11033;47.490;11.116;2022-09-09T04:06:59;93006.56;;;15.54;85.34
21742;BME280;11033;47.490;11.116;2022-09-09T04:09:24;92991.88;;;15.21;88.78
21742;BME280;11033;47.490;11.116;2022-09-09T04:11:50;92994.94;;;15.37;86.17
21742;BME280;11033;47.490;11.116;2022-09-09T04:14:15;92991.41;;;15.43;86.54
21742;BME280;11033;47.490;11.116;2022-09-09T04:16:41;92987.84;;;15.49;84.40
21742;BME280;11033;47.490;11.116;2022-09-09T04:19:10;92981.38;;;15.45;84.84
21742;BME280;11033;47.490;11.116;2022-09-09T04:21:37;92979.78;;;15.26;88.21
21742;BME280;11033;47.490;11.116;2022-09-09T04:24:05;92979.91;;;15.31;87.86
21742;BME280;11033;47.490;11.116;2022-09-09T04:26:30;92997.00;;;15.35;87.67
21742;BME280;11033;47.490;11.116;2022-09-09T04:28:55;92998.63;;;15.36;85.72
21742;BME280;11033;47.490;11.116;2022-09-09T04:31:22;93009.97;;;15.43;84.83
21742;BME280;11033;47.490;11.116;2022-09-09T04:33:50;93000.69;;;15.34;85.54
21742;BME280;11033;47.490;11.116;2022-09-09T04:36:17;93001.16;;;15.31;86.45
21742;BME280;11033;47.490;11.116;2022-09-09T04:38:43;92992.31;;;15.18;88.91
21742;BME280;11033;47.490;11.116;2022-09-09T04:41:09;93000.84;;;15.20;89.21
21742;BME280;11033;47.490;11.116;2022-09-09T04:43:36;92993.94;;;15.19;89.04
21742;BME280;11033;47.490;11.116;2022-09-09T04:46:02;92999.53;;;15.30;86.02
21742;BME280;11033;47.490;11.116;2022-09-09T04:48:28;93003.38;;;15.15;88.35
21742;BME280;11033;47.490;11.116;2022-09-09T04:50:55;93011.47;;;15.20;87.00
21742;BME280;11033;47.490;11.116;2022-09-09T04:53:20;93013.53;;;15.18;87.79
21742;BME280;11033;47.490;11.116;2022-09-09T04:55:47;93018.75;;;15.25;86.61
21742;BME280;11033;47.490;11.116;2022-09-09T04:58:12;93015.88;;;15.27;85.72
21742;BME280;11033;47.490;11.116;2022-09-09T05:00:38;93003.94;;;15.17;88.21
21742;BME280;11033;47.490;11.116;2022-09-09T05:03:04;93010.72;;;15.13;88.46
21742;BME280;11033;47.490;11.116;2022-09-09T05:05:31;93011.31;;;15.15;86.77
21742;BME280;11033;47.490;11.116;2022-09-09T05:08:07;93013.53;;;15.18;86.26
21742;BME280;11033;47.490;11.116;2022-09-09T05:10:34;93012.28;;;15.21;86.80
21742;BME280;11033;47.490;11.116;2022-09-09T05:13:01;93009.13;;;15.12;87.46
21742;BME280;11033;47.490;11.116;2022-09-09T05:15:26;93008.22;;;15.18;87.10
21742;BME280;11033;47.490;11.116;2022-09-09T05:17:52;93009.84;;;15.01;89.20
21742;BME280;11033;47.490;11.116;2022-09-09T05:20:20;93007.88;;;14.90;88.32
21742;BME280;11033;47.490;11.116;2022-09-09T05:22:46;93017.66;;;14.71;88.65
21742;BME280;11033;47.490;11.116;2022-09-09T05:25:11;93022.88;;;14.59;90.02
21742;BME280;11033;47.490;11.116;2022-09-09T05:27:37;93001.69;;;14.78;87.87
21742;BME280;11033;47.490;11.116;2022-09-09T05:30:02;93016.41;;;14.74;90.00
21742;BME280;11033;47.490;11.116;2022-09-09T05:32:30;93024.28;;;14.62;88.63
21742;BME280;11033;47.490;11.116;2022-09-09T05:34:59;93027.94;;;14.61;89.46
21742;BME280;11033;47.490;11.116;2022-09-09T05:37:24;93027.59;;;14.76;86.36
21742;BME280;11033;47.490;11.116;2022-09-09T05:39:50;93037.00;;;14.53;86.78
21742;BME280;11033;47.490;11.116;2022-09-09T05:42:15;93036.19;;;14.53;86.39
21742;BME280;11033;47.490;11.116;2022-09-09T05:44:41;93035.63;;;14.69;84.17
21742;BME280;11033;47.490;11.116;2022-09-09T05:47:07;93036.00;;;14.73;84.68
21742;BME280;11033;47.490;11.116;2022-09-09T05:49:33;93037.09;;;14.65;85.25
21742;BME280;11033;47.490;11.116;2022-09-09T05:51:58;93033.56;;;14.71;84.26
21742;BME280;11033;47.490;11.116;2022-09-09T05:54:23;93039.53;;;14.67;87.93
21742;BME280;11033;47.490;11.116;2022-09-09T05:56:49;93037.63;;;14.74;85.83
21742;BME280;11033;47.490;11.116;2022-09-09T05:59:15;93040.44;;;14.79;85.49
21742;BME280;11033;47.490;11.116;2022-09-09T06:01:41;93042.06;;;14.80;84.76
21742;BME280;11033;47.490;11.116;2022-09-09T06:04:07;93044.56;;;14.75;85.58
21742;BME280;11033;47.490;11.116;2022-09-09T06:06:35;93037.63;;;14.74;85.97
21742;BME280;11033;47.490;11.116;2022-09-09T06:09:02;93040.00;;;14.82;84.42
21742;BME280;11033;47.490;11.116;2022-09-09T06:11:30;93041.19;;;14.86;85.40
21742;BME280;11033;47.490;11.116;2022-09-09T06:13:59;93044.13;;;14.78;86.56
21742;BME280;11033;47.490;11.116;2022-09-09T06:16:27;93045.31;;;14.82;85.82
21742;BME280;11033;47.490;11.116;2022-09-09T06:18:53;93040.16;;;14.87;84.57
21742;BME280;11033;47.490;11.116;2022-09-09T06:21:27;93042.16;;;14.91;85.08
21742;BME280;11033;47.490;11.116;2022-09-09T06:23:53;93048.53;;;14.84;85.53
21742;BME280;11033;47.490;11.116;2022-09-09T06:26:23;93047.97;;;14.82;88.81
21742;BME280;11033;47.490;11.116;2022-09-09T06:28:51;93044.59;;;14.93;84.33
21742;BME280;11033;47.490;11.116;2022-09-09T06:31:19;93041.31;;;14.98;84.42
21742;BME280;11033;47.490;11.116;2022-09-09T06:33:50;93036.22;;;14.96;85.59
21742;BME280;11033;47.490;11.116;2022-09-09T06:36:18;93041.63;;;14.83;87.26
21742;BME280;11033;47.490;11.116;2022-09-09T06:38:45;93041.56;;;14.89;86.36
21742;BME280;11033;47.490;11.116;2022-09-09T06:41:13;93045.19;;;14.95;84.59
21742;BME280;11033;47.490;11.116;2022-09-09T06:43:38;93054.59;;;14.91;84.18
21742;BME280;11033;47.490;11.116;2022-09-09T06:46:12;93062.78;;;14.89;87.19
21742;BME280;11033;47.490;11.116;2022-09-09T06:48:42;93051.84;;;14.79;88.29
21742;BME280;11033;47.490;11.116;2022-09-09T06:51:08;93047.50;;;14.85;88.13
21742;BME280;11033;47.490;11.116;2022-09-09T06:53:35;93047.25;;;14.93;86.73
21742;BME280;11033;47.490;11.116;2022-09-09T06:56:31;93041.03;;;15.06;83.34
21742;BME280;11033;47.490;11.116;2022-09-09T06:58:58;93038.59;;;15.04;85.40
21742;BME280;11033;47.490;11.116;2022-09-09T07:01:27;93036.09;;;15.09;84.78
21742;BME280;11033;47.490;11.116;2022-09-09T07:03:55;93035.06;;;15.10;86.73
21742;BME280;11033;47.490;11.116;2022-09-09T07:06:26;93049.06;;;15.17;84.95
21742;BME280;11033;47.490;11.116;2022-09-09T07:08:54;93049.19;;;15.04;87.89
21742;BME280;11033;47.490;11.116;2022-09-09T07:11:22;93066.09;;;14.85;88.63
21742;BME280;11033;47.490;11.116;2022-09-09T07:13:48;93078.97;;;15.06;86.95
21742;BME280;11033;47.490;11.116;2022-09-09T07:16:16;93072.91;;;14.99;88.73
21742;BME280;11033;47.490;11.116;2022-09-09T07:18:42;93066.88;;;15.10;86.58
21742;BME280;11033;47.490;11.116;2022-09-09T07:21:10;93067.19;;;15.02;88.71
21742;BME280;11033;47.490;11.116;2022-09-09T07:23:35;93056.88;;;15.12;87.43
21742;BME280;11033;47.490;11.116;2022-09-09T07:26:01;93063.94;;;15.18;88.28
21742;BME280;11033;47.490;11.116;2022-09-09T07:28:26;93072.91;;;14.99;87.48
21742;BME280;11033;47.490;11.116;2022-09-09T07:30:57;93062.63;;;15.09;87.79
21742;BME280;11033;47.490;11.116;2022-09-09T07:33:24;93063.53;;;15.40;84.95
21742;BME280;11033;47.490;11.116;2022-09-09T07:35:49;93060.06;;;15.39;86.94
21742;BME280;11033;47.490;11.116;2022-09-09T07:38:15;93063.06;;;15.43;87.66
21742;BME280;11033;47.490;11.116;2022-09-09T07:40:40;93065.06;;;15.47;85.26
21742;BME280;11033;47.490;11.116;2022-09-09T07:43:06;93078.13;;;15.49;85.08
21742;BME280;11033;47.490;11.116;2022-09-09T07:45:33;93075.75;;;15.41;86.72
21742;BME280;11033;47.490;11.116;2022-09-09T07:47:58;93077.91;;;15.50;84.68
21742;BME280;11033;47.490;11.116;2022-09-09T07:50:24;93076.41;;;15.54;82.90
21742;BME280;11033;47.490;11.116;2022-09-09T07:52:51;93078.84;;;15.56;81.83
21742;BME280;11033;47.490;11.116;2022-09-09T07:55:16;93075.59;;;15.61;85.21
21742;BME280;11033;47.490;11.116;2022-09-09T07:57:41;93086.00;;;15.62;84.19
21742;BME280;11033;47.490;11.116;2022-09-09T08:00:07;93098.38;;;15.68;84.07
21742;BME280;11033;47.490;11.116;2022-09-09T08:02:33;93087.84;;;15.55;86.85
21742;BME280;11033;47.490;11.116;2022-09-09T08:04:58;93098.81;;;15.65;84.15
21742;BME280;11033;47.490;11.116;2022-09-09T08:07:23;93096.00;;;15.60;84.24
21742;BME280;11033;47.490;11.116;2022-09-09T08:09:49;93098.91;;;15.52;84.17
21742;BME280;11033;47.490;11.116;2022-09-09T08:12:14;93101.72;;;15.57;83.37
21742;BME280;11033;47.490;11.116;2022-09-09T08:14:40;93109.09;;;15.55;83.62
21742;BME280;11033;47.490;11.116;2022-09-09T08:17:05;93103.25;;;15.71;82.19
21742;BME280;11033;47.490;11.116;2022-09-09T08:19:31;93101.31;;;15.60;84.77
21742;BME280;11033;47.490;11.116;2022-09-09T08:21:59;93102.88;;;15.68;84.10
21742;BME280;11033;47.490;11.116;2022-09-09T08:24:26;93113.94;;;15.65;86.40
21742;BME280;11033;47.490;11.116;2022-09-09T08:26:52;93104.06;;;15.72;83.77
21742;BME280;11033;47.490;11.116;2022-09-09T08:29:17;93107.53;;;15.72;83.84
21742;BME280;11033;47.490;11.116;2022-09-09T08:31:48;93104.59;;;15.62;85.52
21742;BME280;11033;47.490;11.116;2022-09-09T08:34:14;93107.38;;;15.67;86.40
21742;BME280;11033;47.490;11.116;2022-09-09T08:36:42;93108.41;;;15.84;83.32
21742;BME280;11033;47.490;11.116;2022-09-09T08:39:09;93112.31;;;15.64;86.28
21742;BME280;11033;47.490;11.116;2022-09-09T08:42:10;93110.19;;;15.72;85.20
21742;BME280;11033;47.490;11.116;2022-09-09T08:47:30;93124.66;;;15.76;83.68
21742;BME280;11033;47.490;11.116;2022-09-09T08:50:12;93131.06;;;15.69;84.78
21742;BME280;11033;47.490;11.116;2022-09-09T08:52:49;93116.91;;;15.75;83.58
21742;BME280;11033;47.490;11.116;2022-09-09T08:58:20;93119.63;;;15.68;87.17
21742;BME280;11033;47.490;11.116;2022-09-09T09:09:11;93117.41;;;15.83;87.17
21742;BME280;11033;47.490;11.116;2022-09-09T09:11:55;93110.16;;;15.91;85.69
21742;BME280;11033;47.490;11.116;2022-09-09T09:14:29;93107.88;;;15.94;85.08
21742;BME280;11033;47.490;11.116;2022-09-09T09:17:01;93106.84;;;15.77;87.18
21742;BME280;11033;47.490;11.116;2022-09-09T09:19:29;93108.78;;;15.88;85.63
21742;BME280;11033;47.490;11.116;2022-09-09T09:21:58;93114.53;;;15.85;87.23
21742;BME280;11033;47.490;11.116;2022-09-09T09:27:21;93112.09;;;15.83;87.47
21742;BME280;11033;47.490;11.116;2022-09-09T09:29:48;93107.22;;;15.99;86.10
21742;BME280;11033;47.490;11.116;2022-09-09T09:32:18;93101.09;;;15.98;85.22
21742;BME280;11033;47.490;11.116;2022-09-09T09:34:53;93102.63;;;16.06;85.60
21742;BME280;11033;47.490;11.116;2022-09-09T09:37:27;93107.44;;;15.79;89.23
21742;BME280;11033;47.490;11.116;2022-09-09T09:39:53;93103.22;;;15.90;87.83
21742;BME280;11033;47.490;11.116;2022-09-09T09:42:18;93103.38;;;15.95;86.22
21742;BME280;11033;47.490;11.116;2022-09-09T09:44:44;93101.44;;;16.02;85.79
21742;BME280;11033;47.490;11.116;2022-09-09T09:47:17;93112.00;;;16.08;84.41
21742;BME280;11033;47.490;11.116;2022-09-09T09:49:59;93107.63;;;16.14;83.92
21742;BME280;11033;47.490;11.116;2022-09-09T09:52:30;93111.81;;;15.73;85.61
21742;BME280;11033;47.490;11.116;2022-09-09T09:54:58;93115.19;;;15.99;83.36
21742;BME280;11033;47.490;11.116;2022-09-09T09:57:27;93113.91;;;16.01;84.36
21742;BME280;11033;47.490;11.116;2022-09-09T10:00:14;93106.72;;;16.20;82.33
21742;BME280;11033;47.490;11.116;2022-09-09T10:02:41;93104.94;;;16.32;82.61
21742;BME280;11033;47.490;11.116;2022-09-09T10:05:20;93103.47;;;16.18;82.75
21742;BME280;11033;47.490;11.116;2022-09-09T10:07:59;93102.31;;;16.14;83.99
21742;BME280;11033;47.490;11.116;2022-09-09T10:10:45;93106.75;;;16.02;83.49
21742;BME280;11033;47.490;11.116;2022-09-09T10:13:20;93107.53;;;16.21;83.12
21742;BME280;11033;47.490;11.116;2022-09-09T10:19:04;93107.09;;;16.24;82.88
21742;BME280;11033;47.490;11.116;2022-09-09T10:24:41;93094.72;;;16.47;83.30
21742;BME280;11033;47.490;11.116;2022-09-09T10:27:15;93098.78;;;16.62;82.25
21742;BME280;11033;47.490;11.116;2022-09-09T10:38:40;93103.22;;;16.68;82.40
21742;BME280;11033;47.490;11.116;2022-09-09T10:44:16;93102.09;;;16.75;81.63
21742;BME280;11033;47.490;11.116;2022-09-09T10:47:02;93095.97;;;16.87;81.81
21742;BME280;11033;47.490;11.116;2022-09-09T10:50:07;93098.69;;;16.98;82.67
21742;BME280;11033;47.490;11.116;2022-09-09T10:55:19;93101.22;;;16.93;83.42
21742;BME280;11033;47.490;11.116;2022-09-09T10:57:48;93102.41;;;17.21;82.86
21742;BME280;11033;47.490;11.116;2022-09-09T11:00:18;93093.38;;;17.22;82.33
21742;BME280;11033;47.490;11.116;2022-09-09T11:02:47;93096.16;;;17.27;80.72
21742;BME280;11033;47.490;11.116;2022-09-09T11:05:39;93099.72;;;17.32;80.93
21742;BME280;11033;47.490;11.116;2022-09-09T11:08:11;93094.38;;;16.56;80.59
21742;BME280;11033;47.490;11.116;2022-09-09T11:14:11;93096.13;;;16.92;82.25
21742;BME280;11033;47.490;11.116;2022-09-09T11:16:44;93097.06;;;17.21;82.66
21742;BME280;11033;47.490;11.116;2022-09-09T11:19:42;93087.00;;;17.34;80.98
21742;BME280;11033;47.490;11.116;2022-09-09T11:24:41;93089.06;;;17.44;80.37
21742;BME280;11033;47.490;11.116;2022-09-09T11:27:19;93088.72;;;17.52;79.67
21742;BME280;11033;47.490;11.116;2022-09-09T11:30:02;93099.75;;;17.56;79.67
21742;BME280;11033;47.490;11.116;2022-09-09T11:32:52;93093.22;;;17.52;79.98
21742;BME280;11033;47.490;11.116;2022-09-09T11:35:25;93098.78;;;17.50;80.01
21742;BME280;11033;47.490;11.116;2022-09-09T11:40:27;93104.81;;;17.10;83.01
21742;BME280;11033;47.490;11.116;2022-09-09T11:43:05;93108.06;;;17.24;83.00
21742;BME280;11033;47.490;11.116;2022-09-09T11:45:34;93109.00;;;17.30;82.67
21742;BME280;11033;47.490;11.116;2022-09-09T11:48:02;93109.22;;;17.17;83.11
21742;BME280;11033;47.490;11.116;2022-09-09T11:50:35;93102.28;;;17.27;82.37
21742;BME280;11033;47.490;11.116;2022-09-09T11:55:39;93114.44;;;16.70;83.10
21742;BME280;11033;47.490;11.116;2022-09-09T11:58:06;93115.50;;;16.80;82.51
21742;BME280;11033;47.490;11.116;2022-09-09T12:00:45;93123.28;;;16.04;85.00
21742;BME280;11033;47.490;11.116;2022-09-09T12:06:13;93117.13;;;16.70;81.39
21742;BME280;11033;47.490;11.116;2022-09-09T12:08:43;93124.00;;;16.11;82.93
21742;BME280;11033;47.490;11.116;2022-09-09T12:11:10;93134.41;;;16.31;82.74
21742;BME280;11033;47.490;11.116;2022-09-09T12:13:36;93137.00;;;16.19;83.97
21742;BME280;11033;47.490;11.116;2022-09-09T12:16:02;93145.00;;;16.01;84.28
21742;BME280;11033;47.490;11.116;2022-09-09T12:18:38;93146.69;;;15.95;84.45
21742;BME280;11033;47.490;11.116;2022-09-09T12:21:32;93146.81;;;16.18;82.44
21742;BME280;11033;47.490;11.116;2022-09-09T12:24:07;93144.41;;;15.80;84.06
21742;BME280;11033;47.490;11.116;2022-09-09T12:26:43;93139.59;;;16.07;82.84
21742;BME280;11033;47.490;11.116;2022-09-09T12:31:48;93130.44;;;16.52;83.21
21742;BME280;11033;47.490;11.116;2022-09-09T12:37:03;93125.97;;;16.64;86.09
21742;BME280;11033;47.490;11.116;2022-09-09T12:39:34;93126.75;;;16.83;83.30
21742;BME280;11033;47.490;11.116;2022-09-09T12:42:02;93123.22;;;17.00;81.66
21742;BME280;11033;47.490;11.116;2022-09-09T12:44:29;93120.66;;;16.94;85.33
21742;BME280;11033;47.490;11.116;2022-09-09T12:46:56;93109.56;;;17.08;85.35
21742;BME280;11033;47.490;11.116;2022-09-09T12:49:30;93108.19;;;17.18;83.55
21742;BME280;11033;47.490;11.116;2022-09-09T12:52:01;93100.88;;;17.13;85.60
21742;BME280;11033;47.490;11.116;2022-09-09T12:54:27;93089.31;;;17.31;82.02
21742;BME280;11033;47.490;11.116;2022-09-09T12:56:53;93092.44;;;17.04;84.94
21742;BME280;11033;47.490;11.116;2022-09-09T12:59:27;93080.16;;;17.27;82.63
21742;BME280;11033;47.490;11.116;2022-09-09T13:01:59;93085.97;;;17.24;83.07
21742;BME280;11033;47.490;11.116;2022-09-09T13:04:25;93075.53;;;17.34;82.19
21742;BME280;11033;47.490;11.116;2022-09-09T13:06:51;93080.75;;;17.29;83.01
21742;BME280;11033;47.490;11.116;2022-09-09T13:09:17;93070.22;;;17.34;81.79
21742;BME280;11033;47.490;11.116;2022-09-09T13:11:50;93064.41;;;17.37;79.96
21742;BME280;11033;47.490;11.116;2022-09-09T13:14:28;93063.72;;;17.30;81.45
21742;BME280;11033;47.490;11.116;2022-09-09T13:16:57;93057.94;;;17.33;81.56
21742;BME280;11033;47.490;11.116;2022-09-09T13:19:23;93059.31;;;17.47;81.40
21742;BME280;11033;47.490;11.116;2022-09-09T13:21:52;93058.03;;;17.38;82.37
21742;BME280;11033;47.490;11.116;2022-09-09T13:26:58;93055.13;;;17.51;81.80
21742;BME280;11033;47.490;11.116;2022-09-09T13:29:25;93048.91;;;17.57;81.71
21742;BME280;11033;47.490;11.116;2022-09-09T13:31:50;93055.84;;;17.58;82.60
21742;BME280;11033;47.490;11.116;2022-09-09T13:34:32;93056.53;;;17.65;82.42
21742;BME280;11033;47.490;11.116;2022-09-09T13:37:23;93059.09;;;17.60;84.05
21742;BME280;11033;47.490;11.116;2022-09-09T13:39:53;93046.69;;;17.78;83.11
21742;BME280;11033;47.490;11.116;2022-09-09T13:42:25;93052.78;;;17.90;82.10
21742;BME280;11033;47.490;11.116;2022-09-09T13:44:51;93047.88;;;17.98;81.75
21742;BME280;11033;47.490;11.116;2022-09-09T13:47:21;93042.50;;;17.47;82.57
21742;BME280;11033;47.490;11.116;2022-09-09T13:49:51;93045.31;;;17.40;82.03
21742;BME280;11033;47.490;11.116;2022-09-09T13:52:18;93051.47;;;16.94;81.39
21742;BME280;11033;47.490;11.116;2022-09-09T13:54:48;93049.94;;;17.33;81.12
21742;BME280;11033;47.490;11.116;2022-09-09T13:57:24;93057.72;;;17.11;79.57
21742;BME280;11033;47.490;11.116;2022-09-09T13:59:52;93050.88;;;17.38;79.98
21742;BME280;11033;47.490;11.116;2022-09-09T14:02:18;93054.00;;;17.59;80.44
21742;BME280;11033;47.490;11.116;2022-09-09T14:04:44;93049.94;;;17.56;80.45
21742;BME280;11033;47.490;11.116;2022-09-09T14:07:13;93056.41;;;17.60;81.22
21742;BME280;11033;47.490;11.116;2022-09-09T14:09:40;93053.66;;;17.67;80.63
21742;BME280;11033;47.490;11.116;2022-09-09T14:12:12;93055.13;;;17.63;81.27
21742;BME280;11033;47.490;11.116;2022-09-09T14:14:39;93061.41;;;17.45;79.94
21742;BME280;11033;47.490;11.116;2022-09-09T14:17:07;93056.91;;;17.10;79.89
21742;BME280;11033;47.490;11.116;2022-09-09T14:19:32;93053.28;;;17.40;80.06
21742;BME280;11033;47.490;11.116;2022-09-09T14:21:58;93052.72;;;17.26;80.84
21742;BME280;11033;47.490;11.116;2022-09-09T14:24:24;93054.47;;;16.97;81.07
21742;BME280;11033;47.490;11.116;2022-09-09T14:26:50;93053.75;;;17.37;79.97
21742;BME280;11033;47.490;11.116;2022-09-09T14:29:15;93052.03;;;17.42;79.55
21742;BME280;11033;47.490;11.116;2022-09-09T14:31:41;93049.59;;;17.41;78.72
21742;BME280;11033;47.490;11.116;2022-09-09T14:34:06;93046.81;;;17.36;79.78
21742;BME280;11033;47.490;11.116;2022-09-09T14:36:31;93047.88;;;17.11;81.33
21742;BME280;11033;47.490;11.116;2022-09-09T14:38:57;93054.22;;;17.34;80.59
21742;BME280;11033;47.490;11.116;2022-09-09T14:41:22;93047.06;;;17.23;83.39
21742;BME280;11033;47.490;11.116;2022-09-09T14:43:48;93042.31;;;17.36;81.46
21742;BME280;11033;47.490;11.116;2022-09-09T14:46:16;93044.97;;;17.25;82.84